ΕΜΥ, Εθνική Μετεωρολογική Υπηρεσία - Δελτία Καιρού, Προγνώσεις

ΑΕΡΟΝΑΥΤΙΛΙΑ

GREEK AIRPORTS CODES

LGKY 061200Z 22009KT 9999 FEW014 BKN020 15/12 Q1014 RMK SCT080=

EUROPEAN AIRPORTS CODES

LFPO 061200Z AUTO 22010KT 9999 -RA BKN020/// BKN060///OVC070/// ///TCU 12/08 Q1022=